Time;durP1;ratioP1;P1;durP2;ratioP2;P2;SDS_P1;SDS_P2;PMS_P1;PMS_P2;Temp;Humidity;BMP_temperature;BMP_pressure;BME280_temperature;BME280_humidity;BME280_pressure;Samples;Min_cycle;Max_cycle;Signal;HPM_P1;HPM_P2
2023/01/10 00:00:36;;;;;;;25.70;23.00;;;;;;;;;;5091193;28;20024;-77
2023/01/10 00:03:02;;;;;;;25.67;21.05;;;;;;;;;;5096879;28;20024;-78
2023/01/10 00:05:28;;;;;;;24.90;21.70;;;;;;;;;;5099098;28;20031;-78
2023/01/10 00:07:53;;;;;;;31.63;25.33;;;;;;;;;;5088770;28;20023;-78
2023/01/10 00:10:18;;;;;;;41.08;30.30;;;;;;;;;;5092088;28;20327;-79
2023/01/10 00:15:30;;;;;;;29.88;25.33;;;;;;;;;;5085377;28;20109;-78
2023/01/10 00:17:55;;;;;;;29.67;23.98;;;;;;;;;;5094365;28;20016;-79
2023/01/10 00:20:20;;;;;;;33.60;26.83;;;;;;;;;;5097701;28;20080;-78
2023/01/10 00:22:48;;;;;;;39.58;31.05;;;;;;;;;;5088528;28;20012;-77
2023/01/10 00:25:13;;;;;;;43.25;33.30;;;;;;;;;;5086642;28;20052;-78
2023/01/10 00:27:39;;;;;;;30.75;26.25;;;;;;;;;;5090981;28;20074;-77
2023/01/10 00:30:12;;;;;;;27.75;22.98;;;;;;;;;;5084575;28;20549;-78
2023/01/10 00:32:39;;;;;;;29.63;24.90;;;;;;;;;;5088830;28;20032;-81
2023/01/10 00:35:05;;;;;;;30.67;25.13;;;;;;;;;;5096853;28;20031;-80
2023/01/10 00:37:30;;;;;;;34.28;28.38;;;;;;;;;;5096222;28;20084;-79
2023/01/10 00:39:56;;;;;;;31.98;26.35;;;;;;;;;;5098745;28;20035;-80
2023/01/10 00:45:05;;;;;;;33.70;26.92;;;;;;;;;;5086428;28;20410;-80
2023/01/10 00:47:30;;;;;;;38.45;28.45;;;;;;;;;;5069662;28;20023;-77
2023/01/10 00:49:56;;;;;;;35.33;28.40;;;;;;;;;;5081867;28;22665;-79
2023/01/10 00:52:21;;;;;;;28.30;23.63;;;;;;;;;;5093775;28;20027;-77
2023/01/10 00:54:46;;;;;;;32.10;26.02;;;;;;;;;;5096929;28;20036;-78
2023/01/10 00:57:12;;;;;;;38.35;29.90;;;;;;;;;;5093776;28;20075;-77
2023/01/10 00:59:37;;;;;;;37.55;29.63;;;;;;;;;;5094880;28;20052;-77
2023/01/10 01:02:02;;;;;;;31.80;26.27;;;;;;;;;;5093823;28;20020;-78
2023/01/10 01:04:32;;;;;;;37.22;29.27;;;;;;;;;;5095785;28;20771;-78
2023/01/10 01:06:58;;;;;;;59.65;42.30;;;;;;;;;;5091438;28;20039;-78
2023/01/10 01:09:23;;;;;;;44.45;33.95;;;;;;;;;;5080436;28;20032;-78
2023/01/10 01:11:48;;;;;;;40.88;30.75;;;;;;;;;;5086713;28;20337;-78
2023/01/10 01:14:14;;;;;;;39.25;30.70;;;;;;;;;;5094299;28;20020;-79
2023/01/10 01:16:39;;;;;;;45.10;35.22;;;;;;;;;;5093736;28;20035;-79
2023/01/10 01:19:04;;;;;;;46.42;35.88;;;;;;;;;;5091578;28;20046;-78
2023/01/10 01:21:30;;;;;;;39.38;29.95;;;;;;;;;;5096377;28;20083;-78
2023/01/10 01:23:55;;;;;;;39.45;29.50;;;;;;;;;;5094564;28;20198;-78
2023/01/10 01:26:23;;;;;;;39.97;31.27;;;;;;;;;;5087488;28;20035;-79
2023/01/10 01:28:49;;;;;;;47.25;34.85;;;;;;;;;;5089432;28;20031;-76
2023/01/10 01:31:14;;;;;;;48.88;35.33;;;;;;;;;;5089864;28;20085;-79
2023/01/10 01:33:40;;;;;;;40.25;29.33;;;;;;;;;;5089283;28;20032;-79
2023/01/10 01:36:09;;;;;;;39.28;28.77;;;;;;;;;;5089204;28;20077;-78
2023/01/10 01:38:35;;;;;;;45.17;31.88;;;;;;;;;;5093998;28;20111;-79
2023/01/10 01:41:00;;;;;;;52.58;34.83;;;;;;;;;;5096510;28;20106;-79
2023/01/10 01:43:27;;;;;;;44.40;31.23;;;;;;;;;;5088350;28;20359;-79
2023/01/10 01:45:53;;;;;;;50.50;34.20;;;;;;;;;;5089788;28;20024;-79
2023/01/10 01:48:24;;;;;;;44.63;31.17;;;;;;;;;;5095263;28;20076;-80
2023/01/10 01:50:58;;;;;;;47.78;33.30;;;;;;;;;;5094650;28;20059;-79
2023/01/10 01:53:29;;;;;;;51.33;37.63;;;;;;;;;;5094410;28;20027;-77
2023/01/10 01:55:58;;;;;;;57.55;39.92;;;;;;;;;;5084529;28;20039;-79
2023/01/10 01:58:28;;;;;;;58.80;38.30;;;;;;;;;;5087582;28;20035;-77
2023/01/10 02:00:54;;;;;;;45.22;31.35;;;;;;;;;;5080722;28;20039;-78
2023/01/10 02:03:19;;;;;;;51.85;35.47;;;;;;;;;;5093492;28;20024;-79
2023/01/10 02:05:45;;;;;;;48.35;35.38;;;;;;;;;;5089035;28;20039;-78
2023/01/10 02:08:11;;;;;;;44.55;31.20;;;;;;;;;;5093332;28;20024;-81
2023/01/10 02:10:40;;;;;;;47.55;30.15;;;;;;;;;;5074728;28;20023;-79
2023/01/10 02:13:07;;;;;;;34.10;25.95;;;;;;;;;;5078199;28;20061;-78
2023/01/10 02:15:32;;;;;;;37.33;27.02;;;;;;;;;;5080184;28;20032;-80
2023/01/10 02:17:58;;;;;;;36.72;25.50;;;;;;;;;;5091264;28;20080;-79
2023/01/10 02:20:23;;;;;;;37.55;28.05;;;;;;;;;;5095150;28;20039;-79
2023/01/10 02:22:55;;;;;;;39.70;28.92;;;;;;;;;;5095646;28;20027;-80
2023/01/10 02:25:32;;;;;;;37.90;27.50;;;;;;;;;;5091892;28;20039;-78
2023/01/10 02:28:16;;;;;;;50.83;39.33;;;;;;;;;;5091693;28;20312;-81
2023/01/10 02:31:00;;;;;;;58.72;47.20;;;;;;;;;;5080325;28;20017;-79
2023/01/10 02:33:29;;;;;;;53.45;44.20;;;;;;;;;;5078545;28;20096;-79
2023/01/10 02:36:03;;;;;;;57.28;38.05;;;;;;;;;;5094335;28;20039;-79
2023/01/10 02:38:45;;;;;;;50.97;33.85;;;;;;;;;;5095052;28;20035;-83
2023/01/10 02:41:16;;;;;;;42.28;30.15;;;;;;;;;;5096412;28;20104;-81
2023/01/10 02:43:45;;;;;;;40.65;28.98;;;;;;;;;;5093667;28;20039;-82
2023/01/10 02:46:14;;;;;;;54.17;39.25;;;;;;;;;;5095747;28;20036;-80
2023/01/10 02:48:40;;;;;;;54.25;38.28;;;;;;;;;;5085518;28;20522;-79
2023/01/10 02:51:21;;;;;;;54.60;35.88;;;;;;;;;;5097161;28;20111;-78
2023/01/10 02:53:52;;;;;;;45.45;33.00;;;;;;;;;;5099443;28;20089;-80
2023/01/10 02:56:32;;;;;;;45.28;34.33;;;;;;;;;;5098400;28;20041;-76
2023/01/10 02:59:03;;;;;;;36.63;28.08;;;;;;;;;;5097856;28;20062;-81
2023/01/10 03:01:40;;;;;;;53.80;34.22;;;;;;;;;;5097990;28;20072;-82
2023/01/10 03:04:19;;;;;;;43.05;30.55;;;;;;;;;;5098163;28;20029;-79
2023/01/10 03:07:08;;;;;;;46.67;32.75;;;;;;;;;;5097452;28;20467;-82
2023/01/10 03:09:35;;;;;;;46.90;33.25;;;;;;;;;;5091053;28;20408;-80
2023/01/10 03:12:09;;;;;;;44.75;32.35;;;;;;;;;;5096583;28;20362;-79
2023/01/10 03:14:36;;;;;;;45.58;33.40;;;;;;;;;;5101088;28;20100;-80
2023/01/10 03:17:05;;;;;;;57.97;41.17;;;;;;;;;;5096724;28;20036;-80
2023/01/10 03:19:33;;;;;;;50.78;36.25;;;;;;;;;;5081814;28;20036;-80
2023/01/10 03:22:00;;;;;;;54.03;38.17;;;;;;;;;;5098860;28;20023;-80
2023/01/10 03:24:31;;;;;;;47.97;33.72;;;;;;;;;;5095925;28;20032;-81
2023/01/10 03:27:00;;;;;;;49.38;31.98;;;;;;;;;;5099966;28;20732;-80
2023/01/10 03:29:40;;;;;;;51.60;35.80;;;;;;;;;;5099039;28;20695;-78
2023/01/10 03:32:08;;;;;;;60.22;38.90;;;;;;;;;;5097437;28;20313;-79
2023/01/10 03:34:34;;;;;;;64.93;41.63;;;;;;;;;;5098566;28;20032;-78
2023/01/10 03:37:22;;;;;;;79.43;40.78;;;;;;;;;;5095727;28;20096;-79
2023/01/10 03:39:47;;;;;;;52.78;36.28;;;;;;;;;;5072413;28;20426;-79
2023/01/10 03:42:26;;;;;;;46.70;31.95;;;;;;;;;;5083071;28;20474;-79
2023/01/10 03:44:52;;;;;;;53.23;32.30;;;;;;;;;;5089480;28;20439;-80
2023/01/10 03:47:31;;;;;;;50.95;33.45;;;;;;;;;;5099495;28;20027;-79
2023/01/10 03:49:59;;;;;;;72.57;36.40;;;;;;;;;;5094642;28;20421;-78
2023/01/10 03:52:25;;;;;;;53.03;34.42;;;;;;;;;;5098570;28;20027;-79
2023/01/10 03:54:50;;;;;;;53.33;35.67;;;;;;;;;;5097844;28;20035;-79
2023/01/10 03:57:17;;;;;;;45.30;34.30;;;;;;;;;;5094176;28;20549;-77
2023/01/10 03:59:42;;;;;;;55.05;38.30;;;;;;;;;;5094871;28;20052;-80
2023/01/10 04:02:07;;;;;;;55.83;37.20;;;;;;;;;;5085310;28;20031;-79
2023/01/10 04:04:33;;;;;;;52.03;34.58;;;;;;;;;;5096310;28;20031;-78
2023/01/10 04:06:58;;;;;;;45.25;32.95;;;;;;;;;;5097961;28;20073;-79
2023/01/10 04:09:23;;;;;;;74.43;38.88;;;;;;;;;;5097181;28;20099;-79
2023/01/10 04:11:48;;;;;;;55.40;36.65;;;;;;;;;;5093816;28;20339;-79
2023/01/10 04:14:14;;;;;;;78.40;49.97;;;;;;;;;;5087158;28;20024;-78
2023/01/10 04:16:39;;;;;;;74.68;47.78;;;;;;;;;;5096112;28;20082;-78
2023/01/10 04:19:04;;;;;;;82.72;45.63;;;;;;;;;;5097331;28;20051;-78
2023/01/10 04:21:30;;;;;;;129.93;77.07;;;;;;;;;;5096785;28;20019;-78
2023/01/10 04:23:55;;;;;;;80.07;53.33;;;;;;;;;;5098287;28;20035;-78
2023/01/10 04:26:20;;;;;;;56.92;39.78;;;;;;;;;;5094820;28;20143;-80
2023/01/10 04:28:45;;;;;;;50.50;33.70;;;;;;;;;;5085537;28;20457;-79
2023/01/10 04:31:11;;;;;;;74.68;43.15;;;;;;;;;;5090358;28;20029;-78
2023/01/10 04:33:37;;;;;;;56.83;39.75;;;;;;;;;;5090583;28;20035;-81
2023/01/10 04:36:03;;;;;;;99.35;55.30;;;;;;;;;;5095257;28;20177;-80
2023/01/10 04:38:28;;;;;;;61.28;40.38;;;;;;;;;;5096964;28;20146;-78
2023/01/10 04:40:54;;;;;;;66.57;44.10;;;;;;;;;;5096085;28;20045;-81
2023/01/10 04:43:20;;;;;;;89.55;60.13;;;;;;;;;;5095053;28;20172;-77
2023/01/10 04:45:45;;;;;;;73.15;45.88;;;;;;;;;;5097718;28;20496;-79
2023/01/10 04:48:11;;;;;;;80.25;48.03;;;;;;;;;;5095276;28;20027;-80
2023/01/10 04:50:36;;;;;;;89.25;57.22;;;;;;;;;;5080895;28;20012;-80
2023/01/10 04:53:01;;;;;;;124.07;77.63;;;;;;;;;;5072493;28;20020;-81
2023/01/10 04:55:26;;;;;;;85.75;53.25;;;;;;;;;;5084938;28;20043;-79
2023/01/10 04:57:52;;;;;;;96.43;61.10;;;;;;;;;;5081236;28;20474;-83
2023/01/10 05:00:17;;;;;;;94.78;64.40;;;;;;;;;;5074597;28;20055;-75
2023/01/10 05:02:43;;;;;;;86.93;54.75;;;;;;;;;;5075596;28;20015;-76
2023/01/10 05:05:09;;;;;;;99.38;63.05;;;;;;;;;;5072168;28;20443;-79
2023/01/10 05:07:35;;;;;;;73.05;49.22;;;;;;;;;;5075142;28;20034;-79
2023/01/10 05:10:00;;;;;;;74.18;49.72;;;;;;;;;;5085579;28;20039;-79
2023/01/10 05:12:25;;;;;;;89.55;62.92;;;;;;;;;;5078627;28;20023;-80
2023/01/10 05:14:51;;;;;;;128.25;84.93;;;;;;;;;;5094806;28;20028;-80
2023/01/10 05:17:16;;;;;;;77.80;56.92;;;;;;;;;;5094150;28;20116;-79
2023/01/10 05:19:41;;;;;;;120.13;90.38;;;;;;;;;;5078627;28;20031;-80
2023/01/10 05:22:06;;;;;;;74.35;53.35;;;;;;;;;;5095639;28;20138;-78
2023/01/10 05:24:32;;;;;;;144.63;109.30;;;;;;;;;;5093282;28;20032;-80
2023/01/10 05:26:57;;;;;;;85.70;63.03;;;;;;;;;;5093548;28;20110;-80
2023/01/10 05:29:22;;;;;;;74.00;53.40;;;;;;;;;;5094612;28;20046;-77
2023/01/10 05:31:49;;;;;;;78.53;58.33;;;;;;;;;;5083205;28;20860;-77
2023/01/10 05:34:14;;;;;;;88.35;66.03;;;;;;;;;;5084174;28;20035;-77
2023/01/10 05:36:40;;;;;;;137.68;100.50;;;;;;;;;;5094810;28;20020;-77
2023/01/10 05:39:05;;;;;;;74.13;56.13;;;;;;;;;;5095592;28;20043;-77
2023/01/10 05:41:30;;;;;;;120.25;87.97;;;;;;;;;;5091427;28;20031;-77
2023/01/10 05:43:56;;;;;;;110.55;80.90;;;;;;;;;;5075727;28;20016;-77
2023/01/10 05:46:21;;;;;;;104.75;78.60;;;;;;;;;;5094039;28;20035;-77
2023/01/10 05:48:47;;;;;;;158.95;110.32;;;;;;;;;;5096120;28;20031;-76
2023/01/10 05:51:12;;;;;;;181.07;126.88;;;;;;;;;;5095661;28;20825;-79
2023/01/10 05:53:37;;;;;;;166.85;117.45;;;;;;;;;;5095906;28;20347;-75
2023/01/10 05:56:03;;;;;;;114.93;82.82;;;;;;;;;;5096430;28;20081;-77
2023/01/10 05:58:28;;;;;;;92.28;67.63;;;;;;;;;;5093848;28;20039;-78
2023/01/10 06:00:54;;;;;;;90.45;68.13;;;;;;;;;;5098026;28;20024;-78
2023/01/10 06:03:19;;;;;;;67.30;53.53;;;;;;;;;;5095704;28;20362;-77
2023/01/10 06:05:45;;;;;;;60.75;46.72;;;;;;;;;;5096199;28;20039;-78
2023/01/10 06:08:10;;;;;;;75.80;60.05;;;;;;;;;;5095654;28;20051;-76
2023/01/10 06:10:35;;;;;;;98.43;81.75;;;;;;;;;;5092428;28;20462;-77
2023/01/10 06:13:01;;;;;;;73.10;57.97;;;;;;;;;;5093305;28;20024;-75
2023/01/10 06:15:26;;;;;;;62.25;50.63;;;;;;;;;;5094071;28;20034;-78
2023/01/10 06:17:52;;;;;;;69.82;57.42;;;;;;;;;;5093685;28;20044;-76
2023/01/10 06:20:17;;;;;;;72.97;57.65;;;;;;;;;;5096570;28;20088;-75
2023/01/10 06:22:43;;;;;;;78.10;62.33;;;;;;;;;;5100363;28;20027;-76
2023/01/10 06:25:09;;;;;;;104.35;81.63;;;;;;;;;;5103073;28;20023;-77
2023/01/10 06:27:34;;;;;;;78.43;63.35;;;;;;;;;;5102020;28;20172;-77
2023/01/10 06:30:00;;;;;;;139.23;102.28;;;;;;;;;;5102497;28;20417;-78
2023/01/10 06:32:26;;;;;;;87.13;69.93;;;;;;;;;;5102147;28;20038;-77
2023/01/10 06:34:51;;;;;;;56.53;43.38;;;;;;;;;;5100755;28;20396;-78
2023/01/10 06:37:16;;;;;;;108.90;91.28;;;;;;;;;;5101296;28;20121;-78
2023/01/10 06:39:41;;;;;;;92.75;70.13;;;;;;;;;;5099921;28;20019;-77
2023/01/10 06:42:07;;;;;;;72.70;57.47;;;;;;;;;;5101534;28;20032;-77
2023/01/10 06:44:32;;;;;;;78.55;62.25;;;;;;;;;;5103066;28;20354;-75
2023/01/10 06:46:57;;;;;;;95.95;76.78;;;;;;;;;;5101988;28;20146;-76
2023/01/10 06:49:23;;;;;;;107.15;89.50;;;;;;;;;;5101141;28;20028;-76
2023/01/10 06:51:48;;;;;;;102.45;80.93;;;;;;;;;;5081253;28;20025;-76
2023/01/10 06:54:13;;;;;;;86.20;68.57;;;;;;;;;;5101764;28;20120;-77
2023/01/10 06:56:38;;;;;;;102.15;83.13;;;;;;;;;;5102459;28;20039;-75
2023/01/10 06:59:04;;;;;;;125.60;101.07;;;;;;;;;;5099709;28;20044;-77
2023/01/10 07:01:29;;;;;;;101.38;80.57;;;;;;;;;;5099551;28;20031;-76
2023/01/10 07:03:54;;;;;;;101.10;79.13;;;;;;;;;;5101757;28;20026;-76
2023/01/10 07:06:20;;;;;;;94.28;67.90;;;;;;;;;;5101766;28;20038;-75
2023/01/10 07:08:46;;;;;;;91.40;66.75;;;;;;;;;;5102585;28;20119;-76
2023/01/10 07:11:13;;;;;;;132.52;101.00;;;;;;;;;;5101707;28;20050;-75
2023/01/10 07:13:39;;;;;;;155.50;119.10;;;;;;;;;;5101313;28;20127;-77
2023/01/10 07:16:06;;;;;;;132.48;101.28;;;;;;;;;;5100474;28;20118;-79
2023/01/10 07:18:33;;;;;;;95.53;71.70;;;;;;;;;;5103042;28;20028;-78
2023/01/10 07:20:58;;;;;;;136.00;103.32;;;;;;;;;;5100499;28;20034;-78
2023/01/10 07:23:23;;;;;;;169.82;134.38;;;;;;;;;;5101381;28;20392;-77
2023/01/10 07:25:48;;;;;;;127.95;103.05;;;;;;;;;;5101196;28;20027;-79
2023/01/10 07:28:14;;;;;;;178.07;137.15;;;;;;;;;;5100440;28;20028;-79
2023/01/10 07:30:39;;;;;;;237.80;192.02;;;;;;;;;;5101313;28;20110;-77
2023/01/10 07:33:05;;;;;;;148.98;119.95;;;;;;;;;;5098314;28;20031;-75
2023/01/10 07:35:30;;;;;;;105.13;81.88;;;;;;;;;;5097152;28;20158;-76
2023/01/10 07:37:59;;;;;;;130.65;106.45;;;;;;;;;;5096612;28;20028;-75
2023/01/10 07:40:25;;;;;;;172.00;131.25;;;;;;;;;;5097030;28;20123;-77
2023/01/10 07:42:59;;;;;;;126.72;100.68;;;;;;;;;;5100681;28;20394;-75
2023/01/10 07:45:28;;;;;;;69.90;55.40;;;;;;;;;;5099882;28;20034;-77
2023/01/10 07:48:00;;;;;;;75.57;57.72;;;;;;;;;;5096132;28;20034;-75
2023/01/10 07:50:26;;;;;;;94.55;73.82;;;;;;;;;;5096167;28;20028;-76
2023/01/10 07:52:51;;;;;;;90.20;63.13;;;;;;;;;;5098716;28;20024;-76
2023/01/10 07:55:17;;;;;;;143.30;107.63;;;;;;;;;;5095824;28;21288;-77
2023/01/10 07:57:42;;;;;;;119.57;85.00;;;;;;;;;;5097267;28;20128;-74
2023/01/10 08:00:08;;;;;;;140.13;99.82;;;;;;;;;;5098609;28;20047;-74
2023/01/10 08:02:33;;;;;;;169.63;120.38;;;;;;;;;;5098327;28;20040;-78
2023/01/10 08:04:58;;;;;;;107.78;85.45;;;;;;;;;;5096724;28;20457;-74
2023/01/10 08:07:24;;;;;;;64.30;51.78;;;;;;;;;;5095349;28;20028;-76
2023/01/10 08:09:49;;;;;;;95.25;72.47;;;;;;;;;;5099011;28;20111;-74
2023/01/10 08:12:14;;;;;;;73.15;59.22;;;;;;;;;;5097171;28;20061;-75
2023/01/10 08:14:39;;;;;;;59.00;47.58;;;;;;;;;;5097906;28;20361;-76
2023/01/10 08:17:05;;;;;;;128.75;91.82;;;;;;;;;;5095503;28;20023;-76
2023/01/10 08:19:30;;;;;;;151.25;111.28;;;;;;;;;;5098789;28;20055;-74
2023/01/10 08:21:55;;;;;;;146.40;113.03;;;;;;;;;;5098337;28;20023;-77
2023/01/10 08:24:21;;;;;;;122.28;93.70;;;;;;;;;;5094167;28;20427;-75
2023/01/10 08:26:46;;;;;;;117.05;90.53;;;;;;;;;;5098302;28;20446;-75
2023/01/10 08:29:11;;;;;;;88.60;68.20;;;;;;;;;;5096443;28;20016;-75
2023/01/10 08:31:39;;;;;;;67.68;51.75;;;;;;;;;;5097812;28;20019;-75
2023/01/10 08:34:04;;;;;;;77.22;57.88;;;;;;;;;;5097624;28;20557;-75
2023/01/10 08:36:29;;;;;;;90.63;61.15;;;;;;;;;;5099085;28;20122;-74
2023/01/10 08:38:54;;;;;;;220.20;126.68;;;;;;;;;;5097276;28;20031;-78
2023/01/10 08:41:20;;;;;;;191.80;116.65;;;;;;;;;;5097421;28;20034;-75
2023/01/10 08:43:48;;;;;;;139.00;85.38;;;;;;;;;;5092789;28;20427;-76
2023/01/10 08:46:13;;;;;;;182.48;107.47;;;;;;;;;;5097542;28;20458;-75
2023/01/10 08:48:38;;;;;;;83.32;64.10;;;;;;;;;;5096615;28;20027;-75
2023/01/10 08:51:04;;;;;;;81.43;67.80;;;;;;;;;;5096946;28;20047;-77
2023/01/10 08:53:30;;;;;;;58.05;48.17;;;;;;;;;;5093275;28;20034;-76
2023/01/10 08:55:56;;;;;;;295.98;175.55;;;;;;;;;;5095378;28;20027;-75
2023/01/10 08:58:21;;;;;;;102.80;63.88;;;;;;;;;;5099137;28;20427;-75
2023/01/10 09:00:48;;;;;;;56.42;42.78;;;;;;;;;;5097044;28;20028;-76
2023/01/10 09:03:13;;;;;;;55.95;40.75;;;;;;;;;;5097070;28;20030;-75
2023/01/10 09:05:39;;;;;;;109.63;80.25;;;;;;;;;;5096459;28;20028;-76
2023/01/10 09:08:04;;;;;;;119.20;85.07;;;;;;;;;;5095072;28;20347;-74
2023/01/10 09:10:30;;;;;;;53.42;41.17;;;;;;;;;;5093542;28;21053;-77
2023/01/10 09:13:00;;;;;;;140.90;88.30;;;;;;;;;;5096076;28;20023;-75
2023/01/10 09:15:30;;;;;;;100.35;67.70;;;;;;;;;;5094441;28;20088;-75
2023/01/10 09:17:57;;;;;;;112.97;84.63;;;;;;;;;;5095474;28;20036;-76
2023/01/10 09:20:23;;;;;;;102.57;81.00;;;;;;;;;;5079148;28;20038;-75
2023/01/10 09:22:48;;;;;;;121.22;92.68;;;;;;;;;;5092779;28;20015;-79
2023/01/10 09:25:14;;;;;;;188.98;135.75;;;;;;;;;;5095245;28;20020;-75
2023/01/10 09:27:39;;;;;;;139.57;105.43;;;;;;;;;;5098304;28;20024;-76
2023/01/10 09:30:04;;;;;;;102.43;82.90;;;;;;;;;;5094838;28;20043;-76
2023/01/10 09:32:30;;;;;;;241.70;173.15;;;;;;;;;;5094843;28;20103;-76
2023/01/10 09:34:55;;;;;;;133.23;100.28;;;;;;;;;;5096297;28;20138;-75
2023/01/10 09:37:20;;;;;;;101.25;79.25;;;;;;;;;;5095398;28;20043;-77
2023/01/10 09:39:46;;;;;;;105.35;84.28;;;;;;;;;;5095238;28;20023;-76
2023/01/10 09:42:11;;;;;;;76.70;61.90;;;;;;;;;;5095559;28;20055;-76
2023/01/10 09:44:53;;;;;;;121.65;95.38;;;;;;;;;;5097841;28;20038;-76
2023/01/10 09:47:18;;;;;;;115.50;86.63;;;;;;;;;;5095727;28;20451;-76
2023/01/10 09:49:44;;;;;;;136.68;97.65;;;;;;;;;;5095444;28;20053;-76
2023/01/10 09:52:15;;;;;;;223.95;147.35;;;;;;;;;;5096656;28;20023;-75
2023/01/10 09:54:41;;;;;;;176.02;119.35;;;;;;;;;;5095851;28;20077;-76
2023/01/10 09:57:12;;;;;;;122.97;91.95;;;;;;;;;;5096009;28;20036;-75
2023/01/10 09:59:40;;;;;;;50.55;43.88;;;;;;;;;;5096408;28;20446;-75
2023/01/10 10:02:21;;;;;;;152.35;113.22;;;;;;;;;;5095864;28;20135;-76
2023/01/10 10:05:05;;;;;;;102.85;81.03;;;;;;;;;;5096255;28;20023;-74
2023/01/10 10:07:30;;;;;;;78.05;56.85;;;;;;;;;;5093568;28;20081;-78
2023/01/10 10:09:55;;;;;;;52.40;40.78;;;;;;;;;;5093822;28;20471;-74
2023/01/10 10:12:23;;;;;;;62.45;49.53;;;;;;;;;;5094948;28;20114;-75
2023/01/10 10:14:59;;;;;;;44.92;35.42;;;;;;;;;;5095387;28;20031;-74
2023/01/10 10:17:27;;;;;;;32.58;28.05;;;;;;;;;;5095826;28;20252;-75
2023/01/10 10:19:58;;;;;;;24.65;22.08;;;;;;;;;;5091599;28;20024;-74
2023/01/10 10:22:42;;;;;;;21.58;18.17;;;;;;;;;;5094736;28;20036;-79
2023/01/10 10:25:15;;;;;;;38.25;28.60;;;;;;;;;;5094659;28;20020;-76
2023/01/10 10:27:52;;;;;;;80.30;57.55;;;;;;;;;;5095315;28;20106;-76
2023/01/10 10:30:31;;;;;;;92.47;68.57;;;;;;;;;;5095645;28;20403;-74
2023/01/10 10:32:57;;;;;;;50.13;43.38;;;;;;;;;;5097444;28;20028;-74
2023/01/10 10:35:25;;;;;;;38.72;33.92;;;;;;;;;;5096144;28;20031;-75
2023/01/10 10:37:51;;;;;;;31.67;27.45;;;;;;;;;;5094961;28;20038;-74
2023/01/10 10:40:20;;;;;;;21.75;18.83;;;;;;;;;;5095841;28;20043;-78
2023/01/10 10:42:48;;;;;;;31.75;25.75;;;;;;;;;;5094116;28;20031;-74
2023/01/10 10:45:16;;;;;;;19.85;17.70;;;;;;;;;;5092294;28;20024;-74
2023/01/10 10:47:48;;;;;;;21.50;18.50;;;;;;;;;;5096479;28;20434;-74
2023/01/10 10:50:14;;;;;;;18.63;16.73;;;;;;;;;;5094745;28;20020;-75
2023/01/10 10:52:39;;;;;;;18.63;16.73;;;;;;;;;;5094157;28;20453;-74
2023/01/10 10:55:11;;;;;;;32.95;29.50;;;;;;;;;;5095593;28;20218;-75
2023/01/10 10:57:37;;;;;;;44.72;40.17;;;;;;;;;;5095009;28;20670;-74
2023/01/10 11:00:04;;;;;;;27.92;25.20;;;;;;;;;;5094465;28;20047;-74
2023/01/10 11:02:31;;;;;;;24.83;21.02;;;;;;;;;;5094461;28;20039;-74
2023/01/10 11:04:58;;;;;;;23.48;21.15;;;;;;;;;;5095537;28;20110;-74
2023/01/10 11:07:25;;;;;;;13.05;11.82;;;;;;;;;;5093990;28;20043;-74
2023/01/10 11:12:37;;;;;;;74.55;55.33;;;;;;;;;;5096493;28;20109;-77
2023/01/10 11:15:02;;;;;;;56.33;46.60;;;;;;;;;;5099622;28;20023;-75
2023/01/10 11:17:29;;;;;;;50.58;41.28;;;;;;;;;;5095836;28;20459;-75
2023/01/10 11:19:57;;;;;;;103.65;77.47;;;;;;;;;;5095334;28;20035;-77
2023/01/10 11:22:23;;;;;;;61.10;51.15;;;;;;;;;;5097656;28;20031;-75
2023/01/10 11:24:59;;;;;;;40.20;35.97;;;;;;;;;;5099686;28;20085;-75
2023/01/10 11:27:29;;;;;;;37.03;33.30;;;;;;;;;;5096578;28;20100;-74
2023/01/10 11:29:55;;;;;;;;;;;;;;;;;;5100095;28;20042;-74
2023/01/10 11:32:22;;;;;;;18.33;16.42;;;;;;;;;;5099149;28;19923;-77
2023/01/10 11:34:57;;;;;;;32.97;28.98;;;;;;;;;;5098214;28;20020;-75
2023/01/10 11:37:31;;;;;;;20.77;18.73;;;;;;;;;;5097240;28;20056;-77
2023/01/10 11:40:15;;;;;;;29.92;20.95;;;;;;;;;;5099059;28;20020;-74
2023/01/10 11:42:40;;;;;;;378.30;223.38;;;;;;;;;;5095086;28;20062;-78
2023/01/10 11:45:30;;;;;;;53.85;41.63;;;;;;;;;;5099990;28;20516;-74
2023/01/10 11:47:55;;;;;;;480.75;243.07;;;;;;;;;;5088154;28;20044;-76
2023/01/10 11:50:22;;;;;;;181.18;95.28;;;;;;;;;;5094892;28;20434;-78
2023/01/10 11:52:48;;;;;;;120.07;66.63;;;;;;;;;;5096688;28;20024;-75
2023/01/10 11:55:18;;;;;;;68.15;51.60;;;;;;;;;;5098775;28;20020;-76
2023/01/10 11:57:44;;;;;;;196.65;106.03;;;;;;;;;;5097871;28;20073;-76
2023/01/10 12:00:09;;;;;;;804.88;439.95;;;;;;;;;;5095468;28;20439;-76
2023/01/10 12:02:35;;;;;;;361.33;191.70;;;;;;;;;;5098499;28;20024;-76
2023/01/10 12:05:02;;;;;;;463.15;260.90;;;;;;;;;;5097344;28;20016;-76
2023/01/10 12:07:27;;;;;;;651.85;409.38;;;;;;;;;;5097233;28;20034;-76
2023/01/10 12:09:54;;;;;;;356.25;217.18;;;;;;;;;;5097306;28;20028;-77
2023/01/10 12:12:27;;;;;;;157.90;110.35;;;;;;;;;;5096265;28;20108;-74
2023/01/10 12:15:00;;;;;;;82.43;59.60;;;;;;;;;;5078985;28;20388;-75
2023/01/10 12:17:30;;;;;;;53.95;43.72;;;;;;;;;;5096061;28;20047;-77
2023/01/10 12:19:59;;;;;;;73.57;52.67;;;;;;;;;;5096577;28;20048;-77
2023/01/10 12:22:38;;;;;;;81.97;63.35;;;;;;;;;;5096153;28;20459;-76
2023/01/10 12:25:16;;;;;;;100.80;79.60;;;;;;;;;;5096894;28;20023;-78
2023/01/10 12:27:43;;;;;;;103.13;84.88;;;;;;;;;;5097220;28;20073;-76
2023/01/10 12:30:15;;;;;;;103.78;86.20;;;;;;;;;;5096953;28;20020;-76
2023/01/10 12:32:43;;;;;;;113.43;98.78;;;;;;;;;;5092793;28;20348;-76
2023/01/10 12:35:19;;;;;;;94.28;81.22;;;;;;;;;;5097218;28;20031;-77
2023/01/10 12:37:51;;;;;;;111.20;85.78;;;;;;;;;;5095754;28;20042;-77
2023/01/10 12:40:27;;;;;;;84.95;65.35;;;;;;;;;;5095346;28;20351;-75
2023/01/10 12:45:44;;;;;;;59.50;49.92;;;;;;;;;;5096121;28;20149;-77
2023/01/10 12:48:12;;;;;;;55.47;47.75;;;;;;;;;;5099095;28;20435;-76
2023/01/10 12:50:42;;;;;;;77.68;65.00;;;;;;;;;;5096132;28;20649;-76
2023/01/10 12:53:10;;;;;;;70.28;62.65;;;;;;;;;;5099083;28;20119;-77
2023/01/10 12:55:39;;;;;;;122.13;99.72;;;;;;;;;;5096975;28;20076;-76
2023/01/10 12:58:05;;;;;;;80.55;67.00;;;;;;;;;;5094471;28;20050;-77
2023/01/10 13:00:32;;;;;;;62.80;49.33;;;;;;;;;;5097997;28;20442;-76
2023/01/10 13:02:59;;;;;;;93.43;65.30;;;;;;;;;;5097401;28;20034;-78
2023/01/10 13:05:29;;;;;;;129.77;94.38;;;;;;;;;;5097148;28;20331;-75
2023/01/10 13:07:59;;;;;;;119.47;96.80;;;;;;;;;;5097172;28;20034;-77
2023/01/10 13:10:25;;;;;;;83.18;69.90;;;;;;;;;;5094882;28;20027;-78
2023/01/10 13:13:14;;;;;;;67.43;58.63;;;;;;;;;;5099051;28;20072;-77
2023/01/10 13:16:03;;;;;;;62.22;52.65;;;;;;;;;;5088822;28;20086;-77
2023/01/10 13:18:30;;;;;;;67.07;59.67;;;;;;;;;;5095896;28;20213;-77
2023/01/10 13:21:02;;;;;;;148.88;116.82;;;;;;;;;;5097854;28;20023;-77
2023/01/10 13:23:30;;;;;;;241.45;187.63;;;;;;;;;;5096003;28;20031;-77
2023/01/10 13:25:57;;;;;;;128.85;105.80;;;;;;;;;;5095260;28;20132;-76
2023/01/10 13:28:23;;;;;;;114.13;94.15;;;;;;;;;;5094210;28;20066;-76
2023/01/10 13:30:52;;;;;;;98.65;80.93;;;;;;;;;;5094372;28;20028;-76
2023/01/10 13:33:22;;;;;;;129.18;106.00;;;;;;;;;;5096661;28;20107;-76
2023/01/10 13:35:49;;;;;;;123.07;102.95;;;;;;;;;;5096686;28;20030;-74
2023/01/10 13:38:19;;;;;;;158.77;134.13;;;;;;;;;;5096481;28;20058;-77
2023/01/10 13:40:56;;;;;;;198.50;167.45;;;;;;;;;;5094319;28;20039;-77
2023/01/10 13:43:32;;;;;;;202.95;158.27;;;;;;;;;;5092067;28;20038;-75
2023/01/10 13:46:15;;;;;;;380.75;299.77;;;;;;;;;;5096073;28;20062;-76
2023/01/10 13:49:02;;;;;;;310.20;244.10;;;;;;;;;;5095258;28;20446;-76
2023/01/10 13:51:28;;;;;;;271.67;221.20;;;;;;;;;;5097483;28;20055;-76
2023/01/10 13:53:57;;;;;;;283.85;230.55;;;;;;;;;;5095003;28;20023;-76
2023/01/10 13:56:28;;;;;;;275.35;220.25;;;;;;;;;;5095615;28;20852;-75
2023/01/10 14:04:26;;;;;;;309.83;232.10;;;;;;;;;;5096277;28;20075;-75
2023/01/10 14:06:56;;;;;;;268.50;199.75;;;;;;;;;;5095958;28;20650;-75
2023/01/10 14:09:21;;;;;;;;;;;;;;;;;;5095231;28;20028;-75
2023/01/10 14:11:55;;;;;;;175.07;131.67;;;;;;;;;;5079701;28;19918;-76
2023/01/10 14:14:26;;;;;;;180.80;140.10;;;;;;;;;;5086600;28;20256;-76
2023/01/10 14:16:54;;;;;;;180.82;144.82;;;;;;;;;;5092773;28;20487;-76
2023/01/10 14:19:26;;;;;;;217.50;178.77;;;;;;;;;;5094383;28;20084;-78
2023/01/10 14:21:54;;;;;;;211.55;167.98;;;;;;;;;;5093196;28;20115;-76
2023/01/10 14:24:31;;;;;;;210.65;179.77;;;;;;;;;;5095548;28;20086;-76
2023/01/10 14:27:00;;;;;;;220.85;189.25;;;;;;;;;;5092386;28;20020;-75
2023/01/10 14:29:29;;;;;;;393.77;318.20;;;;;;;;;;5089238;28;20439;-77
2023/01/10 14:31:55;;;;;;;391.17;313.00;;;;;;;;;;5067777;28;20473;-76